sensor_id;sensor_type;location;lat;lon;timestamp;pressure;altitude;pressure_sealevel;temperature;humidity
6423;BME280;3244;42.708;23.288;2023-02-10T00:00:46;96852.16;;;-4.50;67.68
6423;BME280;3244;42.708;23.288;2023-02-10T00:03:13;96851.94;;;-4.69;68.21
6423;BME280;3244;42.708;23.288;2023-02-10T00:05:40;96852.88;;;-4.67;68.40
6423;BME280;3244;42.708;23.288;2023-02-10T00:08:08;96851.56;;;-4.77;68.75
6423;BME280;3244;42.708;23.288;2023-02-10T00:10:35;96853.09;;;-4.79;69.03
6423;BME280;3244;42.708;23.288;2023-02-10T00:13:02;96850.53;;;-4.81;69.69
6423;BME280;3244;42.708;23.288;2023-02-10T00:15:29;96851.22;;;-4.83;69.83
6423;BME280;3244;42.708;23.288;2023-02-10T00:17:56;96845.16;;;-4.88;69.75
6423;BME280;3244;42.708;23.288;2023-02-10T00:20:23;96845.25;;;-4.87;70.08
6423;BME280;3244;42.708;23.288;2023-02-10T00:22:49;96845.41;;;-4.84;69.48
6423;BME280;3244;42.708;23.288;2023-02-10T00:25:17;96834.72;;;-4.83;69.75
6423;BME280;3244;42.708;23.288;2023-02-10T00:27:44;96847.97;;;-4.82;69.75
6423;BME280;3244;42.708;23.288;2023-02-10T00:30:12;96846.84;;;-4.72;69.41
6423;BME280;3244;42.708;23.288;2023-02-10T00:32:39;96839.31;;;-4.74;69.42
6423;BME280;3244;42.708;23.288;2023-02-10T00:35:06;96838.47;;;-4.74;69.14
6423;BME280;3244;42.708;23.288;2023-02-10T00:37:33;96815.31;;;-4.90;69.92
6423;BME280;3244;42.708;23.288;2023-02-10T00:40:00;96832.06;;;-4.86;70.08
6423;BME280;3244;42.708;23.288;2023-02-10T00:42:28;96828.56;;;-4.89;70.13
6423;BME280;3244;42.708;23.288;2023-02-10T00:44:55;96828.31;;;-4.94;69.95
6423;BME280;3244;42.708;23.288;2023-02-10T00:47:21;96797.00;;;-5.08;70.14
6423;BME280;3244;42.708;23.288;2023-02-10T00:49:51;96823.53;;;-4.91;70.34
6423;BME280;3244;42.708;23.288;2023-02-10T00:52:20;96815.03;;;-4.96;70.27
6423;BME280;3244;42.708;23.288;2023-02-10T00:54:46;96819.97;;;-4.96;70.53
6423;BME280;3244;42.708;23.288;2023-02-10T00:57:13;96816.00;;;-4.92;70.01
6423;BME280;3244;42.708;23.288;2023-02-10T00:59:41;96821.22;;;-4.88;70.17
6423;BME280;3244;42.708;23.288;2023-02-10T01:02:08;96810.38;;;-4.90;70.08
6423;BME280;3244;42.708;23.288;2023-02-10T01:04:35;96808.13;;;-4.85;69.75
6423;BME280;3244;42.708;23.288;2023-02-10T01:07:02;96818.13;;;-4.84;70.01
6423;BME280;3244;42.708;23.288;2023-02-10T01:09:29;96809.69;;;-4.87;70.03
6423;BME280;3244;42.708;23.288;2023-02-10T01:11:56;96812.94;;;-4.88;70.14
6423;BME280;3244;42.708;23.288;2023-02-10T01:14:23;96805.72;;;-5.00;69.71
6423;BME280;3244;42.708;23.288;2023-02-10T01:16:52;96806.47;;;-5.01;69.89
6423;BME280;3244;42.708;23.288;2023-02-10T01:19:19;96804.59;;;-5.05;70.19
6423;BME280;3244;42.708;23.288;2023-02-10T01:21:45;96804.59;;;-5.05;70.20
6423;BME280;3244;42.708;23.288;2023-02-10T01:24:12;96807.25;;;-5.02;69.57
6423;BME280;3244;42.708;23.288;2023-02-10T01:26:39;96798.44;;;-4.97;69.64
6423;BME280;3244;42.708;23.288;2023-02-10T01:29:06;96802.75;;;-4.93;70.04
6423;BME280;3244;42.708;23.288;2023-02-10T01:31:32;96781.34;;;-5.07;70.01
6423;BME280;3244;42.708;23.288;2023-02-10T01:34:01;96794.50;;;-5.08;70.30
6423;BME280;3244;42.708;23.288;2023-02-10T01:36:28;96793.66;;;-5.08;70.50
6423;BME280;3244;42.708;23.288;2023-02-10T01:38:54;96802.81;;;-5.07;69.75
6423;BME280;3244;42.708;23.288;2023-02-10T01:41:22;96796.75;;;-5.13;70.26
6423;BME280;3244;42.708;23.288;2023-02-10T01:43:55;96795.81;;;-5.15;70.21
6423;BME280;3244;42.708;23.288;2023-02-10T01:46:22;96798.19;;;-5.16;70.00
6423;BME280;3244;42.708;23.288;2023-02-10T01:48:50;96785.28;;;-5.10;69.89
6423;BME280;3244;42.708;23.288;2023-02-10T01:51:19;96783.13;;;-5.04;69.25
6423;BME280;3244;42.708;23.288;2023-02-10T01:53:48;96791.34;;;-5.05;69.36
6423;BME280;3244;42.708;23.288;2023-02-10T01:56:15;96774.34;;;-5.14;69.93
6423;BME280;3244;42.708;23.288;2023-02-10T01:58:43;96774.91;;;-5.20;70.09
6423;BME280;3244;42.708;23.288;2023-02-10T02:01:10;96770.56;;;-5.07;69.62
6423;BME280;3244;42.708;23.288;2023-02-10T02:03:37;96769.69;;;-5.24;69.97
6423;BME280;3244;42.708;23.288;2023-02-10T02:06:06;96766.88;;;-5.30;69.71
6423;BME280;3244;42.708;23.288;2023-02-10T02:08:35;96767.13;;;-5.40;70.39
6423;BME280;3244;42.708;23.288;2023-02-10T02:11:12;96767.91;;;-5.41;69.78
6423;BME280;3244;42.708;23.288;2023-02-10T02:13:59;96771.78;;;-5.46;69.52
6423;BME280;3244;42.708;23.288;2023-02-10T02:16:37;96769.31;;;-5.46;69.32
6423;BME280;3244;42.708;23.288;2023-02-10T02:19:20;96768.66;;;-5.42;69.81
6423;BME280;3244;42.708;23.288;2023-02-10T02:25:02;96760.06;;;-5.49;69.52
6423;BME280;3244;42.708;23.288;2023-02-10T02:27:45;96765.72;;;-5.52;69.59
6423;BME280;3244;42.708;23.288;2023-02-10T02:33:19;96767.84;;;-5.58;69.72
6423;BME280;3244;42.708;23.288;2023-02-10T02:35:53;96760.75;;;-5.52;69.68
6423;BME280;3244;42.708;23.288;2023-02-10T02:38:23;96759.47;;;-5.60;69.73
6423;BME280;3244;42.708;23.288;2023-02-10T02:40:50;96760.75;;;-5.66;69.64
6423;BME280;3244;42.708;23.288;2023-02-10T02:43:17;96751.69;;;-5.66;69.46
6423;BME280;3244;42.708;23.288;2023-02-10T02:45:52;96750.84;;;-5.81;69.99
6423;BME280;3244;42.708;23.288;2023-02-10T02:48:30;96756.72;;;-5.95;70.60
6423;BME280;3244;42.708;23.288;2023-02-10T02:51:04;96749.59;;;-5.89;70.66
6423;BME280;3244;42.708;23.288;2023-02-10T02:53:38;96749.59;;;-5.89;70.29
6423;BME280;3244;42.708;23.288;2023-02-10T02:56:14;96750.81;;;-5.97;70.70
6423;BME280;3244;42.708;23.288;2023-02-10T02:58:51;96752.34;;;-5.99;70.78
6423;BME280;3244;42.708;23.288;2023-02-10T03:01:24;96754.22;;;-5.95;71.00
6423;BME280;3244;42.708;23.288;2023-02-10T03:03:54;96745.25;;;-5.93;71.02
6423;BME280;3244;42.708;23.288;2023-02-10T03:06:23;96745.41;;;-5.90;70.88
6423;BME280;3244;42.708;23.288;2023-02-10T03:08:50;96754.47;;;-5.91;70.99
6423;BME280;3244;42.708;23.288;2023-02-10T03:11:17;96750.50;;;-5.87;70.81
6423;BME280;3244;42.708;23.288;2023-02-10T03:13:44;96751.28;;;-5.88;70.95
6423;BME280;3244;42.708;23.288;2023-02-10T03:16:10;96747.97;;;-5.89;70.76
6423;BME280;3244;42.708;23.288;2023-02-10T03:18:37;96741.91;;;-5.94;70.44
6423;BME280;3244;42.708;23.288;2023-02-10T03:21:05;96759.72;;;-5.85;70.58
6423;BME280;3244;42.708;23.288;2023-02-10T03:23:32;96759.66;;;-5.86;70.57
6423;BME280;3244;42.708;23.288;2023-02-10T03:25:59;96753.34;;;-5.81;70.53
6423;BME280;3244;42.708;23.288;2023-02-10T03:28:27;96748.88;;;-5.87;70.36
6423;BME280;3244;42.708;23.288;2023-02-10T03:30:54;96753.25;;;-5.83;70.49
6423;BME280;3244;42.708;23.288;2023-02-10T03:33:21;96751.53;;;-5.84;70.30
6423;BME280;3244;42.708;23.288;2023-02-10T03:35:48;96754.28;;;-5.79;70.36
6423;BME280;3244;42.708;23.288;2023-02-10T03:38:17;96750.84;;;-5.81;70.50
6423;BME280;3244;42.708;23.288;2023-02-10T03:40:43;96752.41;;;-5.83;70.36
6423;BME280;3244;42.708;23.288;2023-02-10T03:43:10;96747.28;;;-5.86;70.65
6423;BME280;3244;42.708;23.288;2023-02-10T03:45:38;96738.63;;;-5.94;71.07
6423;BME280;3244;42.708;23.288;2023-02-10T03:48:06;96734.66;;;-5.91;70.72
6423;BME280;3244;42.708;23.288;2023-02-10T03:50:32;96729.09;;;-5.87;70.79
6423;BME280;3244;42.708;23.288;2023-02-10T03:52:59;96727.16;;;-5.92;70.72
6423;BME280;3244;42.708;23.288;2023-02-10T03:55:27;96729.81;;;-5.89;70.55
6423;BME280;3244;42.708;23.288;2023-02-10T03:57:54;96728.31;;;-5.86;70.73
6423;BME280;3244;42.708;23.288;2023-02-10T04:00:21;96726.59;;;-5.87;70.43
6423;BME280;3244;42.708;23.288;2023-02-10T04:02:48;96728.94;;;-5.90;70.49
6423;BME280;3244;42.708;23.288;2023-02-10T04:05:15;96728.09;;;-5.90;70.56
6423;BME280;3244;42.708;23.288;2023-02-10T04:07:41;96722.19;;;-5.92;70.51
6423;BME280;3244;42.708;23.288;2023-02-10T04:10:09;96727.31;;;-5.89;70.44
6423;BME280;3244;42.708;23.288;2023-02-10T04:12:37;96737.03;;;-5.92;70.49
6423;BME280;3244;42.708;23.288;2023-02-10T04:15:05;96730.38;;;-5.93;70.70
6423;BME280;3244;42.708;23.288;2023-02-10T04:17:32;96731.78;;;-5.98;70.54
6423;BME280;3244;42.708;23.288;2023-02-10T04:19:59;96727.50;;;-6.01;70.51
6423;BME280;3244;42.708;23.288;2023-02-10T04:22:25;96735.78;;;-6.00;70.50
6423;BME280;3244;42.708;23.288;2023-02-10T04:24:52;96738.25;;;-6.00;71.06
6423;BME280;3244;42.708;23.288;2023-02-10T04:27:19;96731.59;;;-6.01;70.72
6423;BME280;3244;42.708;23.288;2023-02-10T04:29:47;96732.72;;;-5.96;70.78
6423;BME280;3244;42.708;23.288;2023-02-10T04:32:13;96727.50;;;-6.01;70.62
6423;BME280;3244;42.708;23.288;2023-02-10T04:34:40;96729.31;;;-5.98;70.54
6423;BME280;3244;42.708;23.288;2023-02-10T04:37:07;96713.16;;;-6.06;70.59
6423;BME280;3244;42.708;23.288;2023-02-10T04:39:34;96729.41;;;-5.97;70.81
6423;BME280;3244;42.708;23.288;2023-02-10T04:42:00;96729.22;;;-6.00;70.56
6423;BME280;3244;42.708;23.288;2023-02-10T04:44:27;96728.19;;;-6.03;70.72
6423;BME280;3244;42.708;23.288;2023-02-10T04:46:55;96723.91;;;-6.06;70.76
6423;BME280;3244;42.708;23.288;2023-02-10T04:49:23;96732.97;;;-6.06;70.56
6423;BME280;3244;42.708;23.288;2023-02-10T04:51:50;96734.25;;;-5.98;70.73
6423;BME280;3244;42.708;23.288;2023-02-10T04:54:16;96737.75;;;-5.95;70.52
6423;BME280;3244;42.708;23.288;2023-02-10T04:56:43;96734.56;;;-5.92;70.92
6423;BME280;3244;42.708;23.288;2023-02-10T04:59:10;96739.38;;;-5.95;70.59
6423;BME280;3244;42.708;23.288;2023-02-10T05:01:37;96745.09;;;-5.96;70.72
6423;BME280;3244;42.708;23.288;2023-02-10T05:04:05;96749.88;;;-5.99;70.68
6423;BME280;3244;42.708;23.288;2023-02-10T05:06:31;96747.03;;;-6.05;70.59
6423;BME280;3244;42.708;23.288;2023-02-10T05:08:58;96751.22;;;-6.04;71.26
6423;BME280;3244;42.708;23.288;2023-02-10T05:11:25;96750.47;;;-6.03;70.70
6423;BME280;3244;42.708;23.288;2023-02-10T05:13:52;96752.25;;;-6.01;70.63
6423;BME280;3244;42.708;23.288;2023-02-10T05:16:18;96755.50;;;-6.02;70.58
6423;BME280;3244;42.708;23.288;2023-02-10T05:18:45;96749.53;;;-6.05;70.52
6423;BME280;3244;42.708;23.288;2023-02-10T05:21:13;96761.91;;;-6.05;70.82
6423;BME280;3244;42.708;23.288;2023-02-10T05:23:40;96774.28;;;-6.05;71.02
6423;BME280;3244;42.708;23.288;2023-02-10T05:26:07;96774.94;;;-6.08;70.81
6423;BME280;3244;42.708;23.288;2023-02-10T05:28:34;96786.66;;;-6.05;70.51
6423;BME280;3244;42.708;23.288;2023-02-10T05:31:01;96781.50;;;-6.08;71.14
6423;BME280;3244;42.708;23.288;2023-02-10T05:33:29;96786.25;;;-5.98;71.42
6423;BME280;3244;42.708;23.288;2023-02-10T05:35:55;96786.88;;;-5.86;70.92
6423;BME280;3244;42.708;23.288;2023-02-10T05:38:23;96785.94;;;-5.88;70.63
6423;BME280;3244;42.708;23.288;2023-02-10T05:40:51;96790.84;;;-5.90;70.90
6423;BME280;3244;42.708;23.288;2023-02-10T05:43:18;96792.78;;;-5.84;70.33
6423;BME280;3244;42.708;23.288;2023-02-10T05:45:45;96797.22;;;-5.78;70.13
6423;BME280;3244;42.708;23.288;2023-02-10T05:48:12;96789.13;;;-5.76;69.83
6423;BME280;3244;42.708;23.288;2023-02-10T05:50:39;96782.47;;;-5.77;70.07
6423;BME280;3244;42.708;23.288;2023-02-10T05:53:07;96800.81;;;-5.59;69.95
6423;BME280;3244;42.708;23.288;2023-02-10T05:55:35;96795.91;;;-5.42;69.70
6423;BME280;3244;42.708;23.288;2023-02-10T05:58:01;96803.38;;;-4.97;69.32
6423;BME280;3244;42.708;23.288;2023-02-10T06:00:28;96799.22;;;-4.02;68.36
6423;BME280;3244;42.708;23.288;2023-02-10T06:02:55;96795.66;;;-2.86;64.92
6423;BME280;3244;42.708;23.288;2023-02-10T06:05:21;96790.84;;;-1.67;61.15
6423;BME280;3244;42.708;23.288;2023-02-10T06:07:48;96783.19;;;-0.42;57.68
6423;BME280;3244;42.708;23.288;2023-02-10T06:10:15;96791.50;;;0.54;55.76
6423;BME280;3244;42.708;23.288;2023-02-10T06:12:43;96790.25;;;1.49;51.20
6423;BME280;3244;42.708;23.288;2023-02-10T06:15:10;96793.66;;;2.11;49.31
6423;BME280;3244;42.708;23.288;2023-02-10T06:17:36;96804.63;;;1.84;49.72
6423;BME280;3244;42.708;23.288;2023-02-10T06:20:04;96807.53;;;1.68;48.32
6423;BME280;3244;42.708;23.288;2023-02-10T06:22:31;96805.06;;;1.99;47.29
6423;BME280;3244;42.708;23.288;2023-02-10T06:24:58;96800.97;;;3.02;46.05
6423;BME280;3244;42.708;23.288;2023-02-10T06:27:25;96794.50;;;3.90;43.34
6423;BME280;3244;42.708;23.288;2023-02-10T06:29:53;96802.19;;;4.89;41.26
6423;BME280;3244;42.708;23.288;2023-02-10T06:32:20;96797.81;;;5.94;39.28
6423;BME280;3244;42.708;23.288;2023-02-10T06:34:46;96798.81;;;6.90;36.38
6423;BME280;3244;42.708;23.288;2023-02-10T06:37:13;96798.59;;;7.85;35.86
6423;BME280;3244;42.708;23.288;2023-02-10T06:39:40;96796.34;;;8.66;34.46
6423;BME280;3244;42.708;23.288;2023-02-10T06:42:07;96796.38;;;9.10;32.83
6423;BME280;3244;42.708;23.288;2023-02-10T06:44:33;96799.75;;;9.00;32.10
6423;BME280;3244;42.708;23.288;2023-02-10T06:47:01;96794.69;;;9.00;32.82
6423;BME280;3244;42.708;23.288;2023-02-10T06:49:28;96800.59;;;9.37;31.97
6423;BME280;3244;42.708;23.288;2023-02-10T06:51:55;96799.66;;;9.74;30.93
6423;BME280;3244;42.708;23.288;2023-02-10T06:54:21;96804.78;;;9.62;30.35
6423;BME280;3244;42.708;23.288;2023-02-10T06:56:48;96808.00;;;10.20;30.13
6423;BME280;3244;42.708;23.288;2023-02-10T06:59:15;96803.41;;;10.85;29.04
6423;BME280;3244;42.708;23.288;2023-02-10T07:01:42;96807.97;;;10.30;28.87
6423;BME280;3244;42.708;23.288;2023-02-10T07:04:10;96812.41;;;9.59;29.53
6423;BME280;3244;42.708;23.288;2023-02-10T07:06:37;96819.16;;;9.52;30.36
6423;BME280;3244;42.708;23.288;2023-02-10T07:09:04;96808.81;;;10.26;29.04
6423;BME280;3244;42.708;23.288;2023-02-10T07:11:31;96795.59;;;11.08;27.77
6423;BME280;3244;42.708;23.288;2023-02-10T07:13:58;96786.50;;;11.73;26.53
6423;BME280;3244;42.708;23.288;2023-02-10T07:16:26;96785.72;;;12.41;26.01
6423;BME280;3244;42.708;23.288;2023-02-10T07:18:55;96779.16;;;12.85;25.65
6423;BME280;3244;42.708;23.288;2023-02-10T07:21:23;96784.97;;;12.35;25.72
6423;BME280;3244;42.708;23.288;2023-02-10T07:23:50;96781.06;;;11.22;26.90
6423;BME280;3244;42.708;23.288;2023-02-10T07:26:16;96792.88;;;9.87;28.41
6423;BME280;3244;42.708;23.288;2023-02-10T07:28:44;96797.13;;;8.43;29.69
6423;BME280;3244;42.708;23.288;2023-02-10T07:31:11;96796.66;;;7.43;31.55
6423;BME280;3244;42.708;23.288;2023-02-10T07:33:38;96800.69;;;7.18;32.91
6423;BME280;3244;42.708;23.288;2023-02-10T07:36:06;96800.53;;;8.50;31.24
6423;BME280;3244;42.708;23.288;2023-02-10T07:38:35;96797.91;;;9.96;28.67
6423;BME280;3244;42.708;23.288;2023-02-10T07:41:03;96782.72;;;11.28;26.53
6423;BME280;3244;42.708;23.288;2023-02-10T07:43:30;96783.34;;;11.49;26.30
6423;BME280;3244;42.708;23.288;2023-02-10T07:45:57;96792.03;;;11.30;26.52
6423;BME280;3244;42.708;23.288;2023-02-10T07:48:24;96792.47;;;10.72;26.63
6423;BME280;3244;42.708;23.288;2023-02-10T07:50:51;96794.41;;;10.26;27.10
6423;BME280;3244;42.708;23.288;2023-02-10T07:53:19;96787.19;;;10.97;26.32
6423;BME280;3244;42.708;23.288;2023-02-10T07:55:47;96786.88;;;11.36;25.78
6423;BME280;3244;42.708;23.288;2023-02-10T07:58:14;96800.72;;;11.97;24.88
6423;BME280;3244;42.708;23.288;2023-02-10T08:00:41;96801.91;;;11.62;25.54
6423;BME280;3244;42.708;23.288;2023-02-10T08:03:09;96788.00;;;11.93;25.18
6423;BME280;3244;42.708;23.288;2023-02-10T08:05:37;96791.88;;;12.26;24.92
6423;BME280;3244;42.708;23.288;2023-02-10T08:08:04;96799.59;;;13.37;23.58
6423;BME280;3244;42.708;23.288;2023-02-10T08:10:31;96794.91;;;13.62;23.18
6423;BME280;3244;42.708;23.288;2023-02-10T08:12:59;96788.19;;;13.06;24.63
6423;BME280;3244;42.708;23.288;2023-02-10T08:15:26;96786.06;;;12.78;24.29
6423;BME280;3244;42.708;23.288;2023-02-10T08:17:53;96793.91;;;12.63;24.06
6423;BME280;3244;42.708;23.288;2023-02-10T08:20:19;96792.44;;;11.73;25.32
6423;BME280;3244;42.708;23.288;2023-02-10T08:22:46;96784.78;;;11.75;25.37
6423;BME280;3244;42.708;23.288;2023-02-10T08:25:13;96780.88;;;12.21;24.83
6423;BME280;3244;42.708;23.288;2023-02-10T08:27:40;96780.44;;;11.87;24.62
6423;BME280;3244;42.708;23.288;2023-02-10T08:30:09;96779.06;;;11.53;25.26
6423;BME280;3244;42.708;23.288;2023-02-10T08:32:37;96788.03;;;11.92;25.08
6423;BME280;3244;42.708;23.288;2023-02-10T08:35:04;96779.16;;;12.85;24.01
6423;BME280;3244;42.708;23.288;2023-02-10T08:37:31;96782.69;;;12.75;23.53
6423;BME280;3244;42.708;23.288;2023-02-10T08:39:58;96780.88;;;12.21;24.40
6423;BME280;3244;42.708;23.288;2023-02-10T08:42:24;96778.69;;;12.60;24.57
6423;BME280;3244;42.708;23.288;2023-02-10T08:44:51;96780.13;;;13.33;23.53
6423;BME280;3244;42.708;23.288;2023-02-10T08:47:19;96771.31;;;13.94;22.81
6423;BME280;3244;42.708;23.288;2023-02-10T08:49:46;96775.06;;;14.19;22.74
6423;BME280;3244;42.708;23.288;2023-02-10T08:52:13;96763.41;;;14.06;22.65
6423;BME280;3244;42.708;23.288;2023-02-10T08:54:41;96776.50;;;13.45;23.03
6423;BME280;3244;42.708;23.288;2023-02-10T08:57:08;96774.44;;;13.16;23.56
6423;BME280;3244;42.708;23.288;2023-02-10T08:59:35;96775.06;;;12.73;24.28
6423;BME280;3244;42.708;23.288;2023-02-10T09:02:02;96766.63;;;12.68;24.47
6423;BME280;3244;42.708;23.288;2023-02-10T09:04:30;96763.72;;;12.36;24.91
6423;BME280;3244;42.708;23.288;2023-02-10T09:06:57;96761.72;;;11.88;24.49
6423;BME280;3244;42.708;23.288;2023-02-10T09:09:24;96757.69;;;10.77;25.83
6423;BME280;3244;42.708;23.288;2023-02-10T09:11:53;96769.97;;;9.95;27.48
6423;BME280;3244;42.708;23.288;2023-02-10T09:14:20;96768.41;;;9.43;27.78
6423;BME280;3244;42.708;23.288;2023-02-10T09:16:47;96769.31;;;9.09;28.77
6423;BME280;3244;42.708;23.288;2023-02-10T09:19:15;96757.50;;;8.82;29.92
6423;BME280;3244;42.708;23.288;2023-02-10T09:21:43;96759.97;;;8.38;29.92
6423;BME280;3244;42.708;23.288;2023-02-10T09:24:10;96764.91;;;8.04;30.17
6423;BME280;3244;42.708;23.288;2023-02-10T09:26:37;96767.31;;;7.77;31.14
6423;BME280;3244;42.708;23.288;2023-02-10T09:29:04;96761.38;;;7.64;32.09
6423;BME280;3244;42.708;23.288;2023-02-10T09:31:31;96763.91;;;7.63;30.88
6423;BME280;3244;42.708;23.288;2023-02-10T09:33:59;96767.25;;;6.48;32.19
6423;BME280;3244;42.708;23.288;2023-02-10T09:36:26;96765.00;;;5.92;33.73
6423;BME280;3244;42.708;23.288;2023-02-10T09:38:56;96775.78;;;5.19;35.02
6423;BME280;3244;42.708;23.288;2023-02-10T09:41:41;96751.84;;;4.92;35.37
6423;BME280;3244;42.708;23.288;2023-02-10T09:44:15;96746.84;;;4.97;36.09
6423;BME280;3244;42.708;23.288;2023-02-10T09:46:58;96758.91;;;5.15;35.22
6423;BME280;3244;42.708;23.288;2023-02-10T09:49:46;96752.50;;;5.38;35.46
6423;BME280;3244;42.708;23.288;2023-02-10T09:52:22;96752.06;;;5.69;35.42
6423;BME280;3244;42.708;23.288;2023-02-10T09:54:55;96742.38;;;6.01;34.09
6423;BME280;3244;42.708;23.288;2023-02-10T09:57:27;96748.47;;;6.22;34.24
6423;BME280;3244;42.708;23.288;2023-02-10T09:59:56;96735.84;;;6.20;33.66
6423;BME280;3244;42.708;23.288;2023-02-10T10:02:28;96738.63;;;5.69;34.73
6423;BME280;3244;42.708;23.288;2023-02-10T10:04:59;96740.16;;;4.97;35.69
6423;BME280;3244;42.708;23.288;2023-02-10T10:07:30;96730.66;;;4.79;36.22
6423;BME280;3244;42.708;23.288;2023-02-10T10:10:07;96725.47;;;4.69;36.10
6423;BME280;3244;42.708;23.288;2023-02-10T10:12:39;96730.91;;;4.42;36.45
6423;BME280;3244;42.708;23.288;2023-02-10T10:15:13;96705.00;;;4.01;37.28
6423;BME280;3244;42.708;23.288;2023-02-10T10:17:58;96721.69;;;3.96;37.74
6423;BME280;3244;42.708;23.288;2023-02-10T10:20:37;96723.34;;;3.95;37.90
6423;BME280;3244;42.708;23.288;2023-02-10T10:23:29;96712.19;;;3.81;37.45
6423;BME280;3244;42.708;23.288;2023-02-10T10:26:04;96708.09;;;3.42;38.28
6423;BME280;3244;42.708;23.288;2023-02-10T10:28:46;96703.78;;;3.37;39.51
6423;BME280;3244;42.708;23.288;2023-02-10T10:31:17;96703.75;;;3.79;39.57
6423;BME280;3244;42.708;23.288;2023-02-10T10:33:50;96696.41;;;4.36;37.93
6423;BME280;3244;42.708;23.288;2023-02-10T10:36:19;96695.56;;;4.92;36.81
6423;BME280;3244;42.708;23.288;2023-02-10T10:38:49;96689.19;;;5.15;36.63
6423;BME280;3244;42.708;23.288;2023-02-10T10:41:22;96691.19;;;5.40;35.60
6423;BME280;3244;42.708;23.288;2023-02-10T10:43:52;96678.03;;;5.66;35.89
6423;BME280;3244;42.708;23.288;2023-02-10T10:46:23;96673.06;;;5.73;35.03
6423;BME280;3244;42.708;23.288;2023-02-10T10:48:52;96682.84;;;5.47;35.50
6423;BME280;3244;42.708;23.288;2023-02-10T10:51:20;96665.91;;;5.34;35.43
6423;BME280;3244;42.708;23.288;2023-02-10T10:53:48;96673.41;;;5.30;35.85
6423;BME280;3244;42.708;23.288;2023-02-10T10:56:28;96668.16;;;5.13;36.25
6423;BME280;3244;42.708;23.288;2023-02-10T10:58:59;96668.09;;;5.10;36.25
6423;BME280;3244;42.708;23.288;2023-02-10T11:01:34;96665.31;;;4.89;36.01
6423;BME280;3244;42.708;23.288;2023-02-10T11:04:05;96663.00;;;4.48;36.30
6423;BME280;3244;42.708;23.288;2023-02-10T11:06:35;96658.31;;;4.17;37.04
6423;BME280;3244;42.708;23.288;2023-02-10T11:09:04;96661.63;;;4.14;36.91
6423;BME280;3244;42.708;23.288;2023-02-10T11:11:36;96655.88;;;4.23;37.24
6423;BME280;3244;42.708;23.288;2023-02-10T11:14:13;96661.91;;;4.31;37.28
6423;BME280;3244;42.708;23.288;2023-02-10T11:16:41;96654.53;;;4.41;37.01
6423;BME280;3244;42.708;23.288;2023-02-10T11:19:17;96649.66;;;4.54;36.62
6423;BME280;3244;42.708;23.288;2023-02-10T11:21:44;96639.84;;;4.72;36.24
6423;BME280;3244;42.708;23.288;2023-02-10T11:24:22;96634.00;;;4.74;36.77
6423;BME280;3244;42.708;23.288;2023-02-10T11:26:56;96640.91;;;4.86;37.18
6423;BME280;3244;42.708;23.288;2023-02-10T11:29:23;96629.22;;;4.90;36.66
6423;BME280;3244;42.708;23.288;2023-02-10T11:31:51;96634.47;;;5.08;36.06
6423;BME280;3244;42.708;23.288;2023-02-10T11:34:21;96631.91;;;5.03;36.01
6423;BME280;3244;42.708;23.288;2023-02-10T11:36:50;96630.31;;;5.10;35.84
6423;BME280;3244;42.708;23.288;2023-02-10T11:39:22;96627.84;;;5.15;35.77
6423;BME280;3244;42.708;23.288;2023-02-10T11:41:50;96629.56;;;5.17;36.00
6423;BME280;3244;42.708;23.288;2023-02-10T11:44:25;96625.44;;;5.25;35.21
6423;BME280;3244;42.708;23.288;2023-02-10T11:46:57;96622.91;;;5.24;35.59
6423;BME280;3244;42.708;23.288;2023-02-10T11:49:25;96619.50;;;5.17;35.89
6423;BME280;3244;42.708;23.288;2023-02-10T11:51:56;96611.88;;;5.14;35.58
6423;BME280;3244;42.708;23.288;2023-02-10T11:54:24;96620.19;;;5.07;36.81
6423;BME280;3244;42.708;23.288;2023-02-10T11:57:01;96616.88;;;5.11;36.68
6423;BME280;3244;42.708;23.288;2023-02-10T11:59:56;96605.25;;;5.22;36.14
6423;BME280;3244;42.708;23.288;2023-02-10T12:02:35;96597.78;;;5.31;36.53
6423;BME280;3244;42.708;23.288;2023-02-10T12:05:13;96593.63;;;5.33;36.03
6423;BME280;3244;42.708;23.288;2023-02-10T12:07:52;96593.47;;;5.21;36.59
6423;BME280;3244;42.708;23.288;2023-02-10T12:10:28;96594.28;;;5.17;36.94
6423;BME280;3244;42.708;23.288;2023-02-10T12:13:01;96591.78;;;5.22;36.37
6423;BME280;3244;42.708;23.288;2023-02-10T12:15:37;96586.66;;;5.12;37.09
6423;BME280;3244;42.708;23.288;2023-02-10T12:18:26;96576.44;;;5.02;36.67
6423;BME280;3244;42.708;23.288;2023-02-10T12:21:03;96583.91;;;4.96;37.02
6423;BME280;3244;42.708;23.288;2023-02-10T12:23:44;96582.09;;;4.84;37.78
6423;BME280;3244;42.708;23.288;2023-02-10T12:26:20;96579.56;;;4.83;38.00
6423;BME280;3244;42.708;23.288;2023-02-10T12:28:58;96569.50;;;4.84;37.58
6423;BME280;3244;42.708;23.288;2023-02-10T12:31:40;96579.38;;;4.70;37.96
6423;BME280;3244;42.708;23.288;2023-02-10T12:34:29;96577.66;;;4.65;38.32
6423;BME280;3244;42.708;23.288;2023-02-10T12:37:09;96578.56;;;4.68;38.78
6423;BME280;3244;42.708;23.288;2023-02-10T12:39:44;96570.28;;;4.78;38.21
6423;BME280;3244;42.708;23.288;2023-02-10T12:42:26;96567.66;;;4.69;38.73
6423;BME280;3244;42.708;23.288;2023-02-10T12:45:01;96565.84;;;4.61;39.19
6423;BME280;3244;42.708;23.288;2023-02-10T12:47:38;96567.66;;;4.72;38.89
6423;BME280;3244;42.708;23.288;2023-02-10T12:50:37;96555.84;;;4.65;38.88
6423;BME280;3244;42.708;23.288;2023-02-10T12:53:11;96560.06;;;4.66;39.35
6423;BME280;3244;42.708;23.288;2023-02-10T12:55:44;96553.44;;;4.76;39.38
6423;BME280;3244;42.708;23.288;2023-02-10T12:58:17;96561.16;;;4.87;39.23
6423;BME280;3244;42.708;23.288;2023-02-10T13:00:47;96557.03;;;4.92;39.10
6423;BME280;3244;42.708;23.288;2023-02-10T13:03:19;96557.03;;;4.93;38.92
6423;BME280;3244;42.708;23.288;2023-02-10T13:05:50;96554.53;;;4.95;38.75
6423;BME280;3244;42.708;23.288;2023-02-10T13:08:24;96557.03;;;4.93;38.99
6423;BME280;3244;42.708;23.288;2023-02-10T13:10:55;96561.13;;;4.85;39.82
6423;BME280;3244;42.708;23.288;2023-02-10T13:13:26;96555.88;;;4.68;40.86
6423;BME280;3244;42.708;23.288;2023-02-10T13:15:58;96555.91;;;4.71;40.55
6423;BME280;3244;42.708;23.288;2023-02-10T13:18:29;96552.59;;;4.75;40.33
6423;BME280;3244;42.708;23.288;2023-02-10T13:21:02;96555.31;;;4.89;40.64
6423;BME280;3244;42.708;23.288;2023-02-10T13:23:37;96556.06;;;4.82;40.50
6423;BME280;3244;42.708;23.288;2023-02-10T13:29:03;96555.97;;;4.77;41.25
6423;BME280;3244;42.708;23.288;2023-02-10T13:31:56;96553.44;;;4.76;41.31
6423;BME280;3244;42.708;23.288;2023-02-10T13:34:27;96550.84;;;4.68;41.08
6423;BME280;3244;42.708;23.288;2023-02-10T13:36:57;96557.59;;;4.69;41.21